createdAt,value
2023-05-05T00:03:56.478Z,20.55
2023-05-05T00:09:00.410Z,28.60
2023-05-05T00:14:04.700Z,20.65
2023-05-05T00:19:09.022Z,30.85
2023-05-05T00:24:13.186Z,25.33
2023-05-05T00:29:17.365Z,21.90
2023-05-05T00:34:21.310Z,23.33
2023-05-05T00:39:25.445Z,21.17
2023-05-05T00:44:42.588Z,26.17
2023-05-05T00:49:46.996Z,24.02
2023-05-05T00:54:51.104Z,25.58
2023-05-05T00:59:57.162Z,26.77
2023-05-05T01:05:01.306Z,26.88
2023-05-05T01:10:27.213Z,28.58
2023-05-05T01:15:43.747Z,29.25
2023-05-05T01:21:00.574Z,28.83
2023-05-05T01:26:54.596Z,30.17
2023-05-05T01:32:09.484Z,29.42
2023-05-05T01:37:23.143Z,31.48
2023-05-05T01:42:29.310Z,29.80
2023-05-05T01:47:33.477Z,29.90
2023-05-05T01:52:39.496Z,31.15
2023-05-05T01:57:46.702Z,33.03
2023-05-05T02:02:51.937Z,31.83
2023-05-05T02:08:00.045Z,32.78
2023-05-05T02:13:05.321Z,31.95
2023-05-05T02:18:10.746Z,31.73
2023-05-05T02:23:14.795Z,34.30
2023-05-05T02:28:24.117Z,32.83
2023-05-05T02:33:32.651Z,37.50
2023-05-05T02:38:40.335Z,34.85
2023-05-05T02:43:45.431Z,32.88
2023-05-05T02:48:49.769Z,32.10
2023-05-05T02:53:53.802Z,32.35
2023-05-05T02:59:16.334Z,30.77
2023-05-05T03:04:32.516Z,31.45
2023-05-05T03:10:12.280Z,32.25
2023-05-05T03:15:26.108Z,32.03
2023-05-05T03:20:31.982Z,31.90
2023-05-05T03:25:46.646Z,32.50
2023-05-05T03:30:59.466Z,32.10
2023-05-05T03:36:04.112Z,32.47
2023-05-05T03:41:08.460Z,33.15
2023-05-05T03:46:12.741Z,32.40
2023-05-05T03:51:17.166Z,33.40
2023-05-05T03:56:21.671Z,32.78
2023-05-05T04:01:25.760Z,33.40
2023-05-05T04:07:06.861Z,34.53
2023-05-05T04:12:12.432Z,33.42
2023-05-05T04:17:17.445Z,31.55
2023-05-05T04:22:21.408Z,30.85
2023-05-05T04:27:27.013Z,30.95
2023-05-05T04:32:30.925Z,29.52
2023-05-05T04:37:35.482Z,29.65
2023-05-05T04:42:40.060Z,29.45
2023-05-05T04:47:44.631Z,29.02
2023-05-05T04:52:49.146Z,26.85
2023-05-05T04:57:54.759Z,26.48
2023-05-05T05:03:00.478Z,23.38
2023-05-05T05:08:05.740Z,26.40
2023-05-05T05:13:12.426Z,25.38
2023-05-05T05:18:17.634Z,26.35
2023-05-05T05:23:22.277Z,23.58
2023-05-05T05:28:26.594Z,24.55
2023-05-05T05:33:34.715Z,23.80
2023-05-05T05:38:38.878Z,24.65
2023-05-05T05:43:44.000Z,23.23
2023-05-05T05:48:48.436Z,22.67
2023-05-05T05:53:52.454Z,22.67
2023-05-05T05:58:56.404Z,24.52
2023-05-05T06:04:00.577Z,23.23
2023-05-05T06:09:04.934Z,46.53
2023-05-05T06:14:10.477Z,26.30
2023-05-05T06:19:14.821Z,23.17
2023-05-05T06:24:19.909Z,21.92
2023-05-05T06:29:23.986Z,20.80
2023-05-05T06:34:28.132Z,20.50
2023-05-05T06:39:32.121Z,18.30
2023-05-05T06:44:37.328Z,18.38
2023-05-05T06:49:41.303Z,18.30
2023-05-05T06:54:45.299Z,18.08
2023-05-05T06:59:49.398Z,16.20
2023-05-05T07:04:55.832Z,16.63
2023-05-05T07:10:00.183Z,16.10
2023-05-05T07:15:15.433Z,16.65
2023-05-05T07:20:27.937Z,16.30
2023-05-05T07:25:31.820Z,47.53
2023-05-05T07:30:35.913Z,23.98
2023-05-05T07:35:40.044Z,25.40
2023-05-05T07:40:43.978Z,41.28
2023-05-05T07:45:48.083Z,34.28
2023-05-05T07:50:53.342Z,34.38
2023-05-05T07:55:57.457Z,35.05
2023-05-05T08:01:01.999Z,33.28
2023-05-05T08:06:13.102Z,33.40
2023-05-05T08:11:17.899Z,34.25
2023-05-05T08:16:22.118Z,35.45
2023-05-05T08:21:26.172Z,35.90
2023-05-05T08:26:30.241Z,38.10
2023-05-05T08:31:35.842Z,36.60
2023-05-05T08:36:40.010Z,37.55
2023-05-05T08:41:44.100Z,37.63
2023-05-05T08:46:50.051Z,37.53
2023-05-05T08:51:55.677Z,35.58
2023-05-05T08:57:02.650Z,36.72
2023-05-05T09:02:09.370Z,35.33
2023-05-05T09:07:13.495Z,35.13
2023-05-05T09:12:19.360Z,34.00
2023-05-05T09:17:27.679Z,34.72
2023-05-05T09:22:39.810Z,35.55
2023-05-05T09:27:48.762Z,36.33
2023-05-05T09:32:55.316Z,32.93
2023-05-05T09:38:13.154Z,33.15
2023-05-05T09:43:19.365Z,33.33
2023-05-05T09:48:31.948Z,31.60
2023-05-05T09:53:41.642Z,29.85
2023-05-05T09:58:45.678Z,29.17
2023-05-05T10:03:53.280Z,33.47
2023-05-05T10:09:03.488Z,33.22
2023-05-05T10:14:08.625Z,34.72
2023-05-05T10:19:15.481Z,35.97
2023-05-05T10:24:51.206Z,34.80
2023-05-05T10:30:08.788Z,34.90
2023-05-05T10:35:28.067Z,36.45
2023-05-05T10:40:32.931Z,36.80
2023-05-05T10:45:38.721Z,34.53
2023-05-05T10:50:52.355Z,34.20
2023-05-05T10:56:14.640Z,33.60
2023-05-05T11:01:32.426Z,32.15
2023-05-05T11:06:36.643Z,31.50
2023-05-05T11:12:14.836Z,34.22
2023-05-05T11:17:48.525Z,31.38
2023-05-05T11:23:14.577Z,27.83
2023-05-05T11:28:26.732Z,27.02
2023-05-05T11:33:39.262Z,26.42
2023-05-05T11:39:09.815Z,25.92
2023-05-05T11:44:21.145Z,25.30
2023-05-05T11:49:33.785Z,26.30
2023-05-05T11:54:48.474Z,24.90
2023-05-05T12:00:04.801Z,26.25
2023-05-05T12:05:21.323Z,28.98
2023-05-05T12:10:25.534Z,27.50
2023-05-05T12:15:33.415Z,30.13
2023-05-05T12:20:38.212Z,33.85
2023-05-05T12:25:42.284Z,30.75
2023-05-05T12:30:59.701Z,45.22
2023-05-05T12:36:05.286Z,67.82
2023-05-05T12:41:09.231Z,63.42
2023-05-05T12:53:07.164Z,36.63
2023-05-05T12:58:11.350Z,40.15
2023-05-05T13:03:21.991Z,50.25
2023-05-05T13:08:43.944Z,36.05
2023-05-05T13:13:48.038Z,39.63
2023-05-05T13:18:52.698Z,39.97
2023-05-05T13:24:05.087Z,83.60
2023-05-05T13:29:18.134Z,88.55
2023-05-05T13:34:21.953Z,40.58
2023-05-05T13:39:26.098Z,43.10
2023-05-05T13:44:30.168Z,71.50
2023-05-05T13:49:35.317Z,46.97
2023-05-05T13:54:39.462Z,54.03
2023-05-05T13:59:43.452Z,37.20
2023-05-05T14:12:00.279Z,39.45
2023-05-05T14:17:04.558Z,38.97
2023-05-05T14:22:08.850Z,37.17
2023-05-05T14:27:13.401Z,37.00
2023-05-05T14:32:17.782Z,35.22
2023-05-05T14:37:21.987Z,34.13
2023-05-05T14:42:27.318Z,33.13
2023-05-05T14:47:31.412Z,30.73
2023-05-05T14:52:35.319Z,32.25
2023-05-05T14:57:39.553Z,32.45
2023-05-05T15:02:43.943Z,30.33
2023-05-05T15:07:48.131Z,28.23
2023-05-05T15:12:52.017Z,26.08
2023-05-05T15:17:55.928Z,25.27
2023-05-05T15:23:00.182Z,24.52
2023-05-05T15:28:03.958Z,25.45
2023-05-05T15:33:08.161Z,23.70
2023-05-05T15:38:13.994Z,22.10
2023-05-05T15:43:18.183Z,20.73
2023-05-05T15:48:22.081Z,20.90
2023-05-05T15:53:27.640Z,21.83
2023-05-05T15:58:31.599Z,19.88
2023-05-05T16:03:35.512Z,24.02
2023-05-05T16:08:40.559Z,20.58
2023-05-05T16:13:44.429Z,20.27
2023-05-05T16:18:48.775Z,21.67
2023-05-05T16:23:52.636Z,20.27
2023-05-05T16:28:56.733Z,20.95
2023-05-05T16:34:01.920Z,20.95
2023-05-05T16:39:05.811Z,20.52
2023-05-05T16:44:09.840Z,21.63
2023-05-05T16:49:13.886Z,30.92
2023-05-05T16:54:17.872Z,22.77
2023-05-05T16:59:22.110Z,24.35
2023-05-05T17:04:26.675Z,20.33
2023-05-05T17:09:30.920Z,20.70
2023-05-05T17:14:34.724Z,22.40
2023-05-05T17:19:38.760Z,22.77
2023-05-05T17:24:43.964Z,21.20
2023-05-05T17:29:48.012Z,20.83
2023-05-05T17:34:51.842Z,21.10
2023-05-05T17:39:56.067Z,20.45
2023-05-05T17:45:01.266Z,21.58
2023-05-05T17:50:08.383Z,20.75
2023-05-05T17:55:12.671Z,22.25
2023-05-05T18:00:17.515Z,21.08
2023-05-05T18:05:21.870Z,22.10
2023-05-05T18:10:26.405Z,24.15
2023-05-05T18:15:33.822Z,24.05
2023-05-05T18:20:37.805Z,23.17
2023-05-05T18:25:42.386Z,23.17
2023-05-05T18:30:46.315Z,21.25
2023-05-05T18:35:50.384Z,21.90
2023-05-05T18:40:54.201Z,21.52
2023-05-05T18:45:58.201Z,20.80
2023-05-05T18:51:03.266Z,21.17
2023-05-05T18:56:07.937Z,20.92
2023-05-05T19:01:11.933Z,21.10
2023-05-05T19:06:16.582Z,24.48
2023-05-05T19:11:21.252Z,27.95
2023-05-05T19:16:25.824Z,26.33
2023-05-05T19:21:31.057Z,26.98
2023-05-05T19:26:34.928Z,25.95
2023-05-05T19:31:39.280Z,29.50
2023-05-05T19:36:43.263Z,28.25
2023-05-05T19:41:47.344Z,28.02
2023-05-05T19:46:51.393Z,25.75
2023-05-05T19:51:55.322Z,23.95
2023-05-05T19:56:59.496Z,24.15
2023-05-05T20:02:03.360Z,26.98
2023-05-05T20:07:07.438Z,31.90
2023-05-05T20:12:12.953Z,25.92
2023-05-05T20:17:20.794Z,23.05
2023-05-05T20:22:26.992Z,30.33
2023-05-05T20:27:31.131Z,31.27
2023-05-05T20:32:35.070Z,30.33
2023-05-05T20:37:39.139Z,31.33
2023-05-05T20:42:42.945Z,28.10
2023-05-05T20:47:46.954Z,28.90
2023-05-05T20:52:51.042Z,30.42
2023-05-05T20:57:55.257Z,26.83
2023-05-05T21:02:59.511Z,25.90
2023-05-05T21:08:03.478Z,25.13
2023-05-05T21:13:08.035Z,26.30
2023-05-05T21:18:12.272Z,25.13
2023-05-05T21:23:16.169Z,24.42
2023-05-05T21:28:20.243Z,24.20
2023-05-05T21:33:24.189Z,24.33
2023-05-05T21:38:28.112Z,24.45
2023-05-05T21:43:32.096Z,24.45
2023-05-05T21:48:36.017Z,24.50
2023-05-05T21:53:41.079Z,25.27
2023-05-05T21:58:45.144Z,24.08
2023-05-05T22:03:49.547Z,24.33
2023-05-05T22:08:53.508Z,24.48
2023-05-05T22:13:57.702Z,23.75
2023-05-05T22:19:02.495Z,23.80
2023-05-05T22:24:07.732Z,23.55
2023-05-05T22:29:12.334Z,25.23
2023-05-05T22:34:19.374Z,24.20
2023-05-05T22:39:24.325Z,23.40
2023-05-05T22:44:28.614Z,23.48
2023-05-05T22:49:32.554Z,23.27
2023-05-05T22:54:36.726Z,23.33
2023-05-05T22:59:40.697Z,23.42
2023-05-05T23:04:45.337Z,25.23
2023-05-05T23:09:49.819Z,22.35
2023-05-05T23:14:53.912Z,24.40
2023-05-05T23:19:58.041Z,24.42
2023-05-05T23:25:02.098Z,23.90
2023-05-05T23:30:09.577Z,24.10
2023-05-05T23:35:13.460Z,24.55
2023-05-05T23:40:17.693Z,23.98
2023-05-05T23:45:21.676Z,23.90
2023-05-05T23:50:26.408Z,24.52
2023-05-05T23:55:30.844Z,25.40
